Time;durP1;ratioP1;P1;durP2;ratioP2;P2;SDS_P1;SDS_P2;PMS_P1;PMS_P2;Temp;Humidity;BMP_temperature;BMP_pressure;BME280_temperature;BME280_humidity;BME280_pressure;Samples;Min_cycle;Max_cycle;Signal;HPM_P1;HPM_P2
2024/01/08 00:02:15;;;;;;;1999.90;999.90;;;-0.30;99.90;;;;;;6098821;23;20014;-72
2024/01/08 00:04:41;;;;;;;1999.90;999.90;;;-0.20;99.90;;;;;;6099302;23;20042;-76
2024/01/08 00:07:06;;;;;;;1999.90;999.90;;;-0.30;99.90;;;;;;6073436;23;20017;-78
2024/01/08 00:09:32;;;;;;;1999.90;999.90;;;-0.30;99.90;;;;;;6073482;23;20084;-74
2024/01/08 00:11:58;;;;;;;1999.90;999.90;;;-0.20;99.90;;;;;;6098098;23;20018;-74
2024/01/08 00:14:23;;;;;;;1999.90;999.90;;;-0.30;99.90;;;;;;6098890;23;20003;-76
2024/01/08 00:16:49;;;;;;;1999.90;999.90;;;-0.30;99.90;;;;;;6098820;23;20082;-75
2024/01/08 00:19:14;;;;;;;1999.90;999.90;;;-0.30;99.90;;;;;;6098999;23;20035;-74
2024/01/08 00:21:41;;;;;;;1999.90;999.90;;;-0.30;99.90;;;;;;6098196;23;20015;-74
2024/01/08 00:24:07;;;;;;;1999.90;999.90;;;-0.20;99.90;;;;;;6073451;23;20013;-75
2024/01/08 00:26:32;;;;;;;1999.90;999.90;;;-0.20;99.90;;;;;;6096969;23;20320;-75
2024/01/08 00:28:59;;;;;;;1999.90;999.90;;;-0.10;99.90;;;;;;6098674;23;20010;-75
2024/01/08 00:31:24;;;;;;;1999.90;999.90;;;-0.10;99.90;;;;;;6098138;23;20022;-75
2024/01/08 00:33:50;;;;;;;1999.90;999.90;;;-0.10;99.90;;;;;;6098610;23;20007;-76
2024/01/08 00:36:15;;;;;;;1999.90;999.90;;;-0.20;99.90;;;;;;6098641;23;20019;-75
2024/01/08 00:38:41;;;;;;;1999.90;999.90;;;-0.20;99.90;;;;;;6099004;23;20014;-75
2024/01/08 00:41:07;;;;;;;1999.90;999.90;;;-0.20;99.90;;;;;;6098211;23;20014;-76
2024/01/08 00:43:32;;;;;;;1999.90;999.90;;;-0.20;99.90;;;;;;6073004;23;20082;-75
2024/01/08 00:45:58;;;;;;;1999.90;999.90;;;-0.20;99.90;;;;;;6098637;23;20018;-75
2024/01/08 00:48:23;;;;;;;1999.90;999.90;;;-0.20;99.90;;;;;;6098883;23;20003;-75
2024/01/08 00:50:51;;;;;;;1999.90;999.90;;;-0.20;99.90;;;;;;6072981;23;20046;-75
2024/01/08 00:53:17;;;;;;;1999.90;999.90;;;-0.30;99.90;;;;;;6072782;23;20011;-75
2024/01/08 00:55:42;;;;;;;1999.90;999.90;;;-0.20;99.90;;;;;;6098710;23;20011;-75
2024/01/08 00:58:08;;;;;;;1999.90;999.90;;;-0.30;99.90;;;;;;6098527;23;20350;-76
2024/01/08 01:00:33;;;;;;;1999.90;999.90;;;-0.20;99.90;;;;;;6098786;23;20011;-75
2024/01/08 01:02:59;;;;;;;1999.90;999.90;;;-0.20;99.90;;;;;;6098255;23;20003;-75
2024/01/08 01:05:24;;;;;;;1999.90;999.90;;;-0.20;99.90;;;;;;6098702;23;20021;-75
2024/01/08 01:07:50;;;;;;;1999.90;999.90;;;-0.20;99.90;;;;;;6073147;23;20043;-75
2024/01/08 01:10:15;;;;;;;1999.90;999.90;;;-0.20;99.90;;;;;;6098499;23;20015;-75
2024/01/08 01:12:41;;;;;;;1999.90;999.90;;;-0.20;99.90;;;;;;6098054;23;20346;-76
2024/01/08 01:15:07;;;;;;;1999.90;999.90;;;-0.20;99.90;;;;;;6098566;23;20022;-75
2024/01/08 01:17:32;;;;;;;1999.90;999.90;;;-0.20;99.90;;;;;;6098678;23;20021;-75
2024/01/08 01:19:58;;;;;;;1999.90;999.90;;;-0.20;99.90;;;;;;6098465;23;20463;-75
2024/01/08 01:22:23;;;;;;;1999.90;999.90;;;-0.20;99.90;;;;;;6098214;23;20069;-75
2024/01/08 01:24:49;;;;;;;1999.90;999.90;;;-0.20;99.90;;;;;;6098231;23;20550;-75
2024/01/08 01:27:14;;;;;;;1999.90;999.90;;;-0.10;99.90;;;;;;6098525;23;20057;-75
2024/01/08 01:29:40;;;;;;;1999.90;999.90;;;-0.20;99.90;;;;;;6098442;23;20134;-75
2024/01/08 01:32:05;;;;;;;1999.90;999.90;;;-0.10;99.90;;;;;;6097818;23;20019;-75
2024/01/08 01:34:31;;;;;;;1999.90;999.90;;;-0.10;99.90;;;;;;6072683;23;20034;-75
2024/01/08 01:36:56;;;;;;;1999.90;999.90;;;-0.10;99.90;;;;;;6098399;23;20437;-76
2024/01/08 01:39:22;;;;;;;1999.90;999.90;;;-0.10;99.90;;;;;;6098114;23;20018;-75
2024/01/08 01:41:50;;;;;;;1999.90;999.90;;;-0.10;99.90;;;;;;6097609;23;20011;-75
2024/01/08 01:44:15;;;;;;;1999.90;999.90;;;-0.10;99.90;;;;;;6098232;23;20083;-75
2024/01/08 01:46:52;;;;;;;1999.90;999.90;;;-0.10;99.90;;;;;;6098430;23;20087;-76
2024/01/08 01:49:20;;;;;;;1999.90;999.90;;;-0.10;99.90;;;;;;6098197;23;20011;-76
2024/01/08 01:51:47;;;;;;;1999.90;999.90;;;-0.10;99.90;;;;;;6097603;23;20014;-75
2024/01/08 01:54:15;;;;;;;1999.90;999.90;;;-0.10;99.90;;;;;;6098097;23;20007;-74
2024/01/08 01:56:43;;;;;;;1999.90;999.90;;;-0.10;99.90;;;;;;6097564;23;20499;-74
2024/01/08 01:59:10;;;;;;;1999.90;999.90;;;-0.10;99.90;;;;;;6072331;23;20102;-75
2024/01/08 02:01:36;;;;;;;1999.90;999.90;;;-0.10;99.90;;;;;;6097655;23;20011;-75
2024/01/08 02:04:02;;;;;;;1999.90;999.90;;;-0.10;99.90;;;;;;6098200;23;20343;-74
2024/01/08 02:06:29;;;;;;;1999.90;999.90;;;-0.10;99.90;;;;;;6098149;23;20101;-75
2024/01/08 02:08:55;;;;;;;1999.90;999.90;;;-0.10;99.90;;;;;;6098098;23;20011;-75
2024/01/08 02:11:21;;;;;;;1999.90;999.90;;;0.00;99.90;;;;;;6096599;23;20018;-75
2024/01/08 02:13:50;;;;;;;1999.90;999.90;;;0.00;99.90;;;;;;6072215;23;20094;-74
2024/01/08 02:16:17;;;;;;;1999.90;999.90;;;0.00;99.90;;;;;;6098079;23;20018;-75
2024/01/08 02:18:43;;;;;;;1999.90;999.90;;;0.00;99.90;;;;;;6072201;23;20015;-75
2024/01/08 02:21:09;;;;;;;1999.90;999.90;;;0.00;99.90;;;;;;6097644;23;20011;-75
2024/01/08 02:23:34;;;;;;;1999.90;999.90;;;-0.10;99.90;;;;;;6097934;23;20015;-75
2024/01/08 02:26:00;;;;;;;1999.90;999.90;;;0.00;99.90;;;;;;6098025;23;20027;-75
2024/01/08 02:28:26;;;;;;;1999.90;999.90;;;-0.10;99.90;;;;;;6097925;23;20401;-75
2024/01/08 02:30:51;;;;;;;1999.90;999.90;;;-0.10;99.90;;;;;;6097322;23;20320;-75
2024/01/08 02:33:17;;;;;;;1999.90;999.90;;;0.00;99.90;;;;;;6097469;23;20089;-74
2024/01/08 02:35:42;;;;;;;1999.90;999.90;;;0.00;99.90;;;;;;6097908;23;20021;-75
2024/01/08 02:38:08;;;;;;;1999.90;999.90;;;0.00;99.90;;;;;;6097756;23;20059;-75
2024/01/08 02:40:34;;;;;;;1999.90;999.90;;;0.00;99.90;;;;;;6072222;23;20021;-74
2024/01/08 02:42:59;;;;;;;1999.90;999.90;;;0.00;99.90;;;;;;6097315;23;20450;-75
2024/01/08 02:45:25;;;;;;;1999.90;999.90;;;-0.10;99.90;;;;;;6072200;23;20019;-74
2024/01/08 02:47:50;;;;;;;1999.90;999.90;;;0.00;99.90;;;;;;6097595;23;20019;-75
2024/01/08 02:50:16;;;;;;;1999.90;999.90;;;0.00;99.90;;;;;;6097530;23;20052;-75
2024/01/08 02:52:44;;;;;;;1999.90;999.90;;;0.00;99.90;;;;;;6097263;23;20019;-75
2024/01/08 02:55:10;;;;;;;1999.90;999.90;;;0.00;99.90;;;;;;6097836;23;20066;-75
2024/01/08 02:57:36;;;;;;;1999.90;999.90;;;0.00;99.90;;;;;;6109172;23;20019;-75
2024/01/08 03:00:04;;;;;;;1999.90;999.90;;;0.00;99.90;;;;;;6127079;23;20415;-75
2024/01/08 03:02:29;;;;;;;1999.90;999.90;;;0.00;99.90;;;;;;6126621;23;20006;-74
2024/01/08 03:04:55;;;;;;;1999.90;999.90;;;-0.10;99.90;;;;;;6127089;23;20073;-75
2024/01/08 03:07:20;;;;;;;1999.90;999.90;;;0.00;99.90;;;;;;6126863;23;20010;-75
2024/01/08 03:09:49;;;;;;;1999.90;999.90;;;0.00;99.90;;;;;;6127071;23;20085;-75
2024/01/08 03:12:15;;;;;;;1999.90;999.90;;;0.00;99.90;;;;;;6126362;23;20015;-75
2024/01/08 03:14:41;;;;;;;1999.90;999.90;;;0.10;99.90;;;;;;6127157;23;20331;-75
2024/01/08 03:17:06;;;;;;;1999.90;999.90;;;0.00;99.90;;;;;;6126928;23;20015;-75
2024/01/08 03:19:32;;;;;;;1999.90;999.90;;;0.00;99.90;;;;;;6125233;22;20006;-75
2024/01/08 03:22:00;;;;;;;1999.90;999.90;;;0.00;99.90;;;;;;6124980;23;20350;-75
2024/01/08 03:24:26;;;;;;;1999.90;999.90;;;0.00;99.90;;;;;;6127085;23;20022;-76
2024/01/08 03:26:51;;;;;;;1999.90;999.90;;;0.00;99.90;;;;;;6126872;23;20045;-75
2024/01/08 03:29:17;;;;;;;1999.90;999.90;;;0.00;99.90;;;;;;6126868;23;20009;-74
2024/01/08 03:31:44;;;;;;;1999.90;999.90;;;0.00;99.90;;;;;;6124772;22;20053;-75
2024/01/08 03:34:09;;;;;;;1999.90;999.90;;;-0.10;99.90;;;;;;6126841;23;20033;-75
2024/01/08 03:36:35;;;;;;;1999.90;999.90;;;0.00;99.90;;;;;;6126779;23;20041;-75
2024/01/08 03:39:00;;;;;;;1999.90;999.90;;;-0.10;99.90;;;;;;6126838;23;20085;-75
2024/01/08 03:41:26;;;;;;;1999.90;999.90;;;-0.10;99.90;;;;;;6126273;23;20015;-75
2024/01/08 03:43:52;;;;;;;1999.90;999.90;;;-0.10;99.90;;;;;;6126878;23;20415;-75
2024/01/08 03:46:17;;;;;;;1999.90;999.90;;;-0.10;99.90;;;;;;6126909;23;20019;-75
2024/01/08 03:48:43;;;;;;;1999.90;999.90;;;-0.10;99.90;;;;;;6126831;23;20006;-74
2024/01/08 03:51:09;;;;;;;1999.90;999.90;;;-0.10;99.90;;;;;;6126238;23;20044;-75
2024/01/08 03:53:34;;;;;;;1999.90;999.90;;;-0.10;99.90;;;;;;6126671;23;20403;-75
2024/01/08 03:56:00;;;;;;;1999.90;999.90;;;-0.10;99.90;;;;;;6124491;23;20073;-75
2024/01/08 03:58:25;;;;;;;1999.90;999.90;;;-0.20;99.90;;;;;;6071905;23;20010;-75
2024/01/08 04:00:52;;;;;;;1999.90;999.90;;;-0.20;99.90;;;;;;6097357;23;20101;-75
2024/01/08 04:03:17;;;;;;;1999.90;999.90;;;-0.20;99.90;;;;;;6071334;23;20010;-75
2024/01/08 04:05:43;;;;;;;1999.90;999.90;;;-0.20;99.90;;;;;;6071721;23;20447;-74
2024/01/08 04:08:08;;;;;;;1999.90;999.90;;;-0.20;99.90;;;;;;6097345;23;20007;-75
2024/01/08 04:10:34;;;;;;;1999.90;999.90;;;-0.30;99.90;;;;;;6097397;23;20003;-74
2024/01/08 04:12:59;;;;;;;1999.90;999.90;;;-0.30;99.90;;;;;;6096929;23;20014;-75
2024/01/08 04:15:25;;;;;;;1999.90;999.90;;;-0.30;99.90;;;;;;6097271;23;20035;-75
2024/01/08 04:17:50;;;;;;;1999.90;999.90;;;-0.30;99.90;;;;;;6097438;23;20003;-75
2024/01/08 04:20:16;;;;;;;1999.90;999.90;;;-0.30;99.90;;;;;;6099067;23;20007;-76
2024/01/08 04:22:44;;;;;;;1999.90;999.90;;;-0.30;99.90;;;;;;6098611;23;20007;-75
2024/01/08 04:25:10;;;;;;;1999.90;999.90;;;-0.30;99.90;;;;;;6073207;23;20011;-75
2024/01/08 04:27:36;;;;;;;1999.90;999.90;;;-0.30;99.90;;;;;;6073443;23;20015;-74
2024/01/08 04:30:01;;;;;;;1999.90;999.90;;;-0.30;99.90;;;;;;6073357;23;20014;-74
2024/01/08 04:32:27;;;;;;;1999.90;999.90;;;-0.30;99.90;;;;;;6098250;23;20015;-75
2024/01/08 04:34:52;;;;;;;1999.90;999.90;;;-0.40;99.90;;;;;;6098958;23;20019;-74
2024/01/08 04:37:18;;;;;;;1999.90;999.90;;;-0.30;99.90;;;;;;6098952;23;20007;-75
2024/01/08 04:39:44;;;;;;;1999.90;999.90;;;-0.40;99.90;;;;;;6098893;23;20086;-75
2024/01/08 04:42:09;;;;;;;1999.90;999.90;;;-0.40;99.90;;;;;;6098487;23;20407;-74
2024/01/08 04:44:35;;;;;;;1999.90;999.90;;;-0.40;99.90;;;;;;6098733;23;20018;-74
2024/01/08 04:47:00;;;;;;;1999.90;999.90;;;-0.40;99.90;;;;;;6098412;23;20015;-75
2024/01/08 04:49:26;;;;;;;1999.90;999.90;;;-0.30;99.90;;;;;;6073192;23;20443;-75
2024/01/08 04:51:51;;;;;;;1999.90;999.90;;;-0.30;99.90;;;;;;6072641;23;20070;-74
2024/01/08 04:54:17;;;;;;;1999.90;999.90;;;-0.30;99.90;;;;;;6098776;23;20347;-75
2024/01/08 04:56:43;;;;;;;1999.90;999.90;;;-0.30;99.90;;;;;;6098538;23;20011;-74
2024/01/08 04:59:08;;;;;;;1999.90;999.90;;;-0.40;99.90;;;;;;6098724;23;20014;-74
2024/01/08 05:01:37;;;;;;;1999.90;999.90;;;-0.30;99.90;;;;;;6098233;23;20011;-74
2024/01/08 05:04:04;;;;;;;1999.90;999.90;;;-0.30;99.90;;;;;;6073010;23;20011;-74
2024/01/08 05:06:29;;;;;;;1999.90;999.90;;;-0.40;99.90;;;;;;6097832;22;20026;-74
2024/01/08 05:08:55;;;;;;;1999.90;999.90;;;-0.40;99.90;;;;;;6098620;23;20385;-74
2024/01/08 05:11:20;;;;;;;1999.90;999.90;;;-0.40;99.90;;;;;;6098171;23;20438;-75
2024/01/08 05:13:46;;;;;;;1999.90;999.90;;;-0.40;99.90;;;;;;6098415;23;20011;-76
2024/01/08 05:16:11;;;;;;;1999.90;999.90;;;-0.40;99.90;;;;;;6098327;23;20011;-75
2024/01/08 05:18:37;;;;;;;1999.90;999.90;;;-0.40;99.90;;;;;;6072500;23;20094;-76
2024/01/08 05:21:04;;;;;;;1999.90;999.90;;;-0.40;99.90;;;;;;6098166;23;20346;-76
2024/01/08 05:23:30;;;;;;;1999.90;999.90;;;-0.40;99.90;;;;;;6098122;23;20011;-76
2024/01/08 05:25:59;;;;;;;1999.90;999.90;;;-0.40;99.90;;;;;;6098243;23;20011;-76
2024/01/08 05:28:26;;;;;;;1999.90;999.90;;;-0.40;99.90;;;;;;6098480;23;20003;-76
2024/01/08 05:30:52;;;;;;;1999.90;999.90;;;-0.40;99.90;;;;;;6072566;23;20524;-76
2024/01/08 05:33:18;;;;;;;1999.90;999.90;;;-0.40;99.90;;;;;;6098273;23;20015;-76
2024/01/08 05:35:44;;;;;;;1999.90;999.90;;;-0.40;99.90;;;;;;6097875;23;20442;-76
2024/01/08 05:38:10;;;;;;;1999.90;999.90;;;-0.40;99.90;;;;;;6072739;23;20003;-76
2024/01/08 05:40:36;;;;;;;1999.90;999.90;;;-0.40;99.90;;;;;;6098350;23;20327;-76
2024/01/08 05:43:03;;;;;;;1999.90;999.90;;;-0.40;99.90;;;;;;6097856;23;20025;-76
2024/01/08 05:45:28;;;;;;;1999.90;999.90;;;-0.40;99.90;;;;;;6097862;23;20509;-76
2024/01/08 05:47:54;;;;;;;1999.90;999.90;;;-0.40;99.90;;;;;;6098288;23;20026;-76
2024/01/08 05:50:21;;;;;;;1999.90;999.90;;;-0.40;99.90;;;;;;6098059;23;20015;-76
2024/01/08 05:52:46;;;;;;;1999.90;999.90;;;-0.40;99.90;;;;;;6097843;23;20011;-76
2024/01/08 05:55:15;;;;;;;1999.90;999.90;;;-0.40;99.90;;;;;;6072377;23;20007;-76
2024/01/08 05:57:41;;;;;;;1999.90;999.90;;;-0.40;99.90;;;;;;6098182;23;20342;-76
2024/01/08 06:00:07;;;;;;;1999.90;999.90;;;-0.40;99.90;;;;;;6098289;23;20007;-76
2024/01/08 06:02:33;;;;;;;1999.90;999.90;;;-0.40;99.90;;;;;;6097684;23;20011;-76
2024/01/08 06:04:58;;;;;;;1999.90;999.90;;;-0.40;99.90;;;;;;6072396;23;20006;-76
2024/01/08 06:07:24;;;;;;;1999.90;999.90;;;-0.40;99.90;;;;;;6098141;23;20007;-76
2024/01/08 06:09:49;;;;;;;1999.90;999.90;;;-0.40;99.90;;;;;;6098108;23;20094;-76
2024/01/08 06:12:15;;;;;;;1999.90;999.90;;;-0.40;99.90;;;;;;6097482;23;20011;-76
2024/01/08 06:14:41;;;;;;;1999.90;999.90;;;-0.40;99.90;;;;;;6097843;23;20335;-76
2024/01/08 06:17:08;;;;;;;1999.90;999.90;;;-0.40;99.90;;;;;;6097968;23;20086;-76
2024/01/08 06:19:34;;;;;;;1999.90;999.90;;;-0.40;99.90;;;;;;6098246;23;20468;-76
2024/01/08 06:21:59;;;;;;;1999.90;999.90;;;-0.40;99.90;;;;;;6097499;23;20122;-76
2024/01/08 06:24:25;;;;;;;1999.90;999.90;;;-0.40;99.90;;;;;;6098122;23;20010;-76
2024/01/08 06:26:51;;;;;;;1999.90;999.90;;;-0.40;99.90;;;;;;6097600;23;20017;-76
2024/01/08 06:29:16;;;;;;;1999.90;999.90;;;-0.40;99.90;;;;;;6097921;23;20014;-76
2024/01/08 06:31:42;;;;;;;1999.90;999.90;;;-0.40;99.90;;;;;;6097348;23;20523;-75
2024/01/08 06:34:08;;;;;;;1999.90;999.90;;;-0.40;99.90;;;;;;6097777;23;20025;-76
2024/01/08 06:36:34;;;;;;;1999.90;999.90;;;-0.40;99.90;;;;;;6072148;23;20034;-76
2024/01/08 06:39:01;;;;;;;1999.90;999.90;;;-0.40;99.90;;;;;;6097790;23;20316;-76
2024/01/08 06:41:26;;;;;;;1999.90;999.90;;;-0.40;99.90;;;;;;6097188;23;20068;-76
2024/01/08 06:43:52;;;;;;;1999.90;999.90;;;-0.40;99.90;;;;;;6097715;23;20542;-76
2024/01/08 06:46:18;;;;;;;1999.90;999.90;;;-0.40;99.90;;;;;;6097435;23;20382;-75
2024/01/08 06:48:44;;;;;;;1999.90;999.90;;;-0.40;99.90;;;;;;6097690;23;20065;-75
2024/01/08 06:51:11;;;;;;;1999.90;999.90;;;-0.40;99.90;;;;;;6097182;23;20023;-76
2024/01/08 06:53:37;;;;;;;1999.90;999.90;;;-0.40;99.90;;;;;;6071896;23;20011;-76
2024/01/08 06:56:03;;;;;;;1999.90;999.90;;;-0.40;99.90;;;;;;6097374;23;20316;-75
2024/01/08 06:58:28;;;;;;;1999.90;999.90;;;-0.40;99.90;;;;;;6071635;23;20525;-76
2024/01/08 07:00:54;;;;;;;1999.90;999.90;;;-0.40;99.90;;;;;;6097302;23;20350;-76
2024/01/08 07:03:20;;;;;;;1999.90;999.90;;;-0.40;99.90;;;;;;6097349;23;20070;-76
2024/01/08 07:05:47;;;;;;;1999.90;999.90;;;-0.40;99.90;;;;;;6097373;23;20038;-76
2024/01/08 07:08:12;;;;;;;1999.90;999.90;;;-0.40;99.90;;;;;;6097684;23;20007;-76
2024/01/08 07:10:38;;;;;;;1999.90;999.90;;;-0.40;99.90;;;;;;6097210;23;20015;-76
2024/01/08 07:13:04;;;;;;;1999.90;999.90;;;-0.40;99.90;;;;;;6071441;23;20011;-76
2024/01/08 07:15:47;;;;;;;1999.90;999.90;;;-0.40;99.90;;;;;;6097616;23;20263;-76
2024/01/08 07:18:13;;;;;;;1999.90;999.90;;;-0.40;99.90;;;;;;6097516;23;20006;-76
2024/01/08 07:20:39;;;;;;;1999.90;999.90;;;-0.40;99.90;;;;;;6071642;23;20018;-76
2024/01/08 07:23:09;;;;;;;1999.90;999.90;;;-0.40;99.90;;;;;;6097313;23;20014;-76
2024/01/08 07:25:37;;;;;;;1999.90;999.90;;;-0.40;99.90;;;;;;6097323;23;20435;-76
2024/01/08 07:28:16;;;;;;;1999.90;999.90;;;-0.40;99.90;;;;;;6071961;23;20462;-76
2024/01/08 07:30:42;;;;;;;1999.90;999.90;;;-0.40;99.90;;;;;;6097435;23;20142;-76
2024/01/08 07:33:07;;;;;;;1999.90;999.90;;;-0.40;99.90;;;;;;6097031;23;20045;-75
2024/01/08 07:35:33;;;;;;;1999.90;999.90;;;-0.40;99.90;;;;;;6071549;23;20015;-76
2024/01/08 07:37:58;;;;;;;1999.90;999.90;;;-0.40;99.90;;;;;;6097433;23;20117;-76
2024/01/08 07:40:27;;;;;;;1999.90;999.90;;;-0.40;99.90;;;;;;6097345;23;20090;-76
2024/01/08 07:42:57;;;;;;;1999.90;999.90;;;-0.50;99.90;;;;;;6071241;23;20065;-76
2024/01/08 07:45:25;;;;;;;1999.90;999.90;;;-0.40;99.90;;;;;;6097002;23;20043;-76
2024/01/08 07:47:51;;;;;;;1999.90;999.90;;;-0.40;99.90;;;;;;6071228;23;20007;-76
2024/01/08 07:50:17;;;;;;;1999.90;999.90;;;-0.40;99.90;;;;;;6097326;23;20093;-76
2024/01/08 07:52:43;;;;;;;1999.90;999.90;;;-0.40;99.90;;;;;;6097043;23;20015;-75
2024/01/08 07:55:08;;;;;;;1999.90;999.90;;;-0.40;99.90;;;;;;6073683;23;20018;-76
2024/01/08 07:57:35;;;;;;;1999.90;999.90;;;-0.40;99.90;;;;;;6099247;23;20320;-76
2024/01/08 08:00:11;;;;;;;1999.90;999.90;;;-0.40;99.90;;;;;;6099135;23;20087;-76
2024/01/08 08:02:37;;;;;;;1999.90;999.90;;;-0.40;99.90;;;;;;6098755;23;20442;-76
2024/01/08 08:05:03;;;;;;;1999.90;999.90;;;-0.40;99.90;;;;;;6073285;23;20022;-76
2024/01/08 08:07:29;;;;;;;1999.90;999.90;;;-0.40;99.90;;;;;;6099143;23;20495;-76
2024/01/08 08:09:55;;;;;;;1999.90;999.90;;;-0.40;99.90;;;;;;6099264;23;20086;-75
2024/01/08 08:12:20;;;;;;;1999.90;999.90;;;-0.40;99.90;;;;;;6098708;23;20015;-76
2024/01/08 08:14:49;;;;;;;1999.90;999.90;;;-0.40;99.90;;;;;;6098903;23;20010;-76
2024/01/08 08:17:15;;;;;;;1999.90;999.90;;;-0.40;99.90;;;;;;6099081;23;20427;-75
2024/01/08 08:19:42;;;;;;;1999.90;999.90;;;-0.40;99.90;;;;;;6074861;23;20003;-77
2024/01/08 08:22:11;;;;;;;1999.90;999.90;;;-0.40;99.90;;;;;;6098841;23;20011;-74
2024/01/08 08:24:40;;;;;;;1999.90;999.90;;;-0.40;99.90;;;;;;6098617;23;20090;-75
2024/01/08 08:27:09;;;;;;;1999.90;999.90;;;-0.40;99.90;;;;;;6098944;23;20077;-75
2024/01/08 08:29:38;;;;;;;1999.90;999.90;;;-0.40;99.90;;;;;;6098697;23;20513;-74
2024/01/08 08:32:04;;;;;;;1999.90;999.90;;;-0.40;99.90;;;;;;6072178;23;20011;-74
2024/01/08 08:34:30;;;;;;;1999.90;999.90;;;-0.30;99.90;;;;;;6099117;23;20011;-74
2024/01/08 08:36:56;;;;;;;1999.90;999.90;;;-0.30;99.90;;;;;;6099050;23;20435;-74
2024/01/08 08:39:22;;;;;;;1999.90;999.90;;;-0.30;99.90;;;;;;6098850;23;20094;-74
2024/01/08 08:41:48;;;;;;;1999.90;999.90;;;-0.30;99.90;;;;;;6098483;23;20022;-74
2024/01/08 08:44:14;;;;;;;1999.90;999.90;;;-0.30;99.90;;;;;;6073053;23;20406;-75
2024/01/08 08:46:39;;;;;;;1999.90;999.90;;;-0.30;99.90;;;;;;6074369;23;20057;-76
2024/01/08 08:49:06;;;;;;;1999.90;999.90;;;-0.20;99.90;;;;;;6099002;23;20026;-74
2024/01/08 08:51:33;;;;;;;1999.90;999.90;;;-0.20;99.90;;;;;;6072387;23;20019;-75
2024/01/08 08:54:02;;;;;;;1999.90;999.90;;;-0.20;99.90;;;;;;6072694;23;20082;-76
2024/01/08 08:56:27;;;;;;;1999.90;999.90;;;-0.20;99.90;;;;;;6071692;23;20026;-75
2024/01/08 08:58:53;;;;;;;1999.90;999.90;;;-0.20;99.90;;;;;;6072758;23;20011;-76
2024/01/08 09:01:18;;;;;;;1999.90;999.90;;;-0.20;99.90;;;;;;6097793;23;20007;-76
2024/01/08 09:03:44;;;;;;;1999.90;999.90;;;-0.20;99.90;;;;;;6098227;23;20014;-76
2024/01/08 09:06:09;;;;;;;1999.90;999.90;;;-0.20;99.90;;;;;;6097870;23;20015;-75
2024/01/08 09:08:35;;;;;;;1999.90;999.90;;;-0.30;99.90;;;;;;6098474;23;20006;-76
2024/01/08 09:11:00;;;;;;;1999.90;999.90;;;-0.30;99.90;;;;;;6072077;23;20026;-76
2024/01/08 09:13:26;;;;;;;1999.90;999.90;;;-0.20;99.90;;;;;;6098372;23;20011;-76
2024/01/08 09:15:51;;;;;;;1999.90;999.90;;;-0.20;99.90;;;;;;6072579;23;20015;-75
2024/01/08 09:18:18;;;;;;;1999.90;999.90;;;-0.20;99.90;;;;;;6098288;23;20011;-76
2024/01/08 09:20:43;;;;;;;1999.90;999.90;;;-0.20;99.90;;;;;;6098378;23;20450;-75
2024/01/08 09:23:09;;;;;;;1999.90;999.90;;;-0.20;99.90;;;;;;6072466;23;20007;-75
2024/01/08 09:25:35;;;;;;;1999.90;999.90;;;-0.30;99.90;;;;;;6098345;23;20030;-75
2024/01/08 09:28:00;;;;;;;1999.90;999.90;;;-0.20;99.90;;;;;;6098129;23;20145;-76
2024/01/08 09:30:26;;;;;;;1999.90;999.90;;;-0.20;99.90;;;;;;6072795;23;20446;-75
2024/01/08 09:32:51;;;;;;;1999.90;999.90;;;-0.20;99.90;;;;;;6098321;23;20018;-75
2024/01/08 09:35:17;;;;;;;1999.90;999.90;;;0.00;99.90;;;;;;6072596;23;20015;-74
2024/01/08 09:37:42;;;;;;;1999.90;999.90;;;0.00;99.90;;;;;;6098559;23;20021;-77
2024/01/08 09:40:10;;;;;;;1999.90;999.90;;;0.00;99.90;;;;;;6098676;23;20029;-82
2024/01/08 09:42:36;;;;;;;1999.90;999.90;;;0.00;99.90;;;;;;6072631;23;20011;-76
2024/01/08 09:45:03;;;;;;;1999.90;999.90;;;-0.10;99.90;;;;;;6097974;23;20090;-75
2024/01/08 09:47:30;;;;;;;1999.90;999.90;;;-0.10;99.90;;;;;;6098807;23;20050;-76
2024/01/08 09:49:57;;;;;;;1999.90;999.90;;;-0.30;99.90;;;;;;6072879;23;20021;-74
2024/01/08 09:52:23;;;;;;;1999.90;999.90;;;-0.50;99.90;;;;;;6097976;23;20021;-74
2024/01/08 09:54:49;;;;;;;1999.90;999.90;;;-0.50;99.90;;;;;;6072557;23;20431;-74
2024/01/08 09:57:15;;;;;;;1999.90;999.90;;;-0.60;99.90;;;;;;6097545;23;20019;-75
2024/01/08 09:59:40;;;;;;;1999.90;999.90;;;-0.60;99.90;;;;;;6098083;23;20011;-74
2024/01/08 10:02:15;;;;;;;1999.90;999.90;;;-0.60;99.90;;;;;;6097709;23;20037;-75
2024/01/08 10:04:40;;;;;;;1999.90;999.90;;;-0.60;99.90;;;;;;6098421;23;20506;-77
2024/01/08 10:07:07;;;;;;;1999.90;999.90;;;-0.70;99.90;;;;;;6072673;23;20207;-80
2024/01/08 10:09:33;;;;;;;1999.90;999.90;;;-0.70;99.90;;;;;;6098121;23;20003;-74
2024/01/08 10:11:59;;;;;;;1999.90;999.90;;;-0.70;99.90;;;;;;6098095;23;20022;-74
2024/01/08 10:14:28;;;;;;;1999.90;999.90;;;-0.70;99.90;;;;;;6097899;23;20427;-74
2024/01/08 10:16:54;;;;;;;1999.90;999.90;;;-0.80;99.90;;;;;;6097431;23;20015;-76
2024/01/08 10:19:23;;;;;;;1999.90;999.90;;;-0.80;99.90;;;;;;6098172;23;19999;-74
2024/01/08 10:22:05;;;;;;;1999.90;999.90;;;-0.80;99.90;;;;;;6071777;23;20085;-75
2024/01/08 10:24:31;;;;;;;1999.90;999.90;;;-0.70;99.90;;;;;;6071949;23;20084;-74
2024/01/08 10:26:56;;;;;;;1999.90;999.90;;;-0.70;99.90;;;;;;6072232;23;20518;-74
2024/01/08 10:29:22;;;;;;;1999.90;999.90;;;-0.70;99.90;;;;;;6097878;23;20085;-84
2024/01/08 10:31:47;;;;;;;1999.90;999.90;;;-0.60;99.90;;;;;;6073521;23;20015;-74
2024/01/08 10:34:14;;;;;;;1999.90;999.90;;;-0.60;99.90;;;;;;6100278;23;20007;-75
2024/01/08 10:36:41;;;;;;;1999.90;999.90;;;-0.50;99.90;;;;;;6099275;23;20021;-75
2024/01/08 10:39:07;;;;;;;1999.90;999.90;;;-0.50;99.90;;;;;;6071843;23;20410;-74
2024/01/08 10:41:32;;;;;;;1999.90;999.90;;;-0.40;99.90;;;;;;6098685;23;20013;-73
2024/01/08 10:43:58;;;;;;;1999.90;999.90;;;-0.50;99.90;;;;;;6072389;23;20009;-74
2024/01/08 10:46:27;;;;;;;1999.90;999.90;;;-0.50;99.90;;;;;;6097468;23;20019;-78
2024/01/08 10:48:52;;;;;;;1999.90;999.90;;;-0.60;99.90;;;;;;6097986;23;20014;-75
2024/01/08 10:51:19;;;;;;;1999.90;999.90;;;-0.60;99.90;;;;;;6097415;23;20030;-75
2024/01/08 10:53:46;;;;;;;1999.90;999.90;;;-0.60;99.90;;;;;;6100745;23;20003;-74
2024/01/08 10:56:14;;;;;;;1999.90;999.90;;;-0.60;99.90;;;;;;6097269;23;20015;-75
2024/01/08 10:59:05;;;;;;;1999.90;999.90;;;-0.60;99.90;;;;;;6097563;23;20007;-74
2024/01/08 11:01:32;;;;;;;1999.90;999.90;;;-0.70;99.90;;;;;;6097298;23;20038;-74
2024/01/08 11:04:00;;;;;;;1999.90;999.90;;;-0.60;99.90;;;;;;6097772;23;20071;-74
2024/01/08 11:06:28;;;;;;;1999.90;999.90;;;-0.60;99.90;;;;;;6097477;23;20077;-75
2024/01/08 11:08:57;;;;;;;1999.90;999.90;;;-0.70;99.90;;;;;;6099495;23;20698;-77
2024/01/08 11:11:22;;;;;;;1999.90;999.90;;;-0.70;99.90;;;;;;6096501;23;20015;-75
2024/01/08 11:13:49;;;;;;;1999.90;999.90;;;-0.60;99.90;;;;;;6097161;23;20007;-74
2024/01/08 11:16:26;;;;;;;1999.90;999.90;;;-0.50;99.90;;;;;;6096976;23;20178;-74
2024/01/08 11:19:18;;;;;;;1999.90;999.90;;;-0.60;99.90;;;;;;6095622;23;20007;-75
2024/01/08 11:21:44;;;;;;;1999.90;999.90;;;-0.40;99.90;;;;;;6071106;23;20011;-75
2024/01/08 11:24:10;;;;;;;1999.90;999.90;;;-0.30;99.90;;;;;;6097634;23;20102;-76
2024/01/08 11:26:47;;;;;;;1999.90;999.90;;;-0.30;99.90;;;;;;6071258;23;20816;-75
2024/01/08 11:29:14;;;;;;;1999.90;999.90;;;-0.20;99.90;;;;;;6099444;23;20003;-75
2024/01/08 11:31:47;;;;;;;1999.90;999.90;;;-0.30;99.90;;;;;;6099221;23;20081;-76
2024/01/08 11:34:44;;;;;;;1999.90;999.90;;;-0.30;99.90;;;;;;6099270;23;20025;-75
2024/01/08 11:37:27;;;;;;;1999.90;999.90;;;-0.30;99.90;;;;;;6099477;23;20093;-75
2024/01/08 11:39:53;;;;;;;1999.90;999.90;;;-0.30;99.90;;;;;;6073433;23;20050;-76
2024/01/08 11:42:20;;;;;;;1999.90;999.90;;;-0.20;99.90;;;;;;6098617;23;20015;-75
2024/01/08 11:44:45;;;;;;;1999.90;999.90;;;-0.20;99.90;;;;;;6099220;23;20372;-75
2024/01/08 11:47:11;;;;;;;1999.90;999.90;;;-0.20;99.90;;;;;;6073552;23;20090;-75
2024/01/08 11:49:36;;;;;;;1999.90;999.90;;;-0.10;99.90;;;;;;6099188;23;20057;-75
2024/01/08 11:52:05;;;;;;;1999.90;999.90;;;-0.10;99.90;;;;;;6072905;23;20011;-75
2024/01/08 11:54:30;;;;;;;1999.90;999.90;;;-0.10;99.90;;;;;;6073049;23;20014;-75
2024/01/08 11:56:56;;;;;;;1999.90;999.90;;;0.00;99.90;;;;;;6099060;23;20350;-75
2024/01/08 11:59:35;;;;;;;1999.90;999.90;;;0.10;99.90;;;;;;6099279;23;20003;-75